sensor_id;sensor_type;location;lat;lon;timestamp;P1;durP1;ratioP1;P2;durP2;ratioP2
5416;SDS011;2731;50.754;12.990;2022-10-18T00:01:15;15.23;;;10.65;;
5416;SDS011;2731;50.754;12.990;2022-10-18T00:03:40;13.25;;;10.32;;
5416;SDS011;2731;50.754;12.990;2022-10-18T00:06:07;15.25;;;10.30;;
5416;SDS011;2731;50.754;12.990;2022-10-18T00:08:35;13.27;;;9.45;;
5416;SDS011;2731;50.754;12.990;2022-10-18T00:11:06;15.32;;;9.35;;
5416;SDS011;2731;50.754;12.990;2022-10-18T00:13:32;10.82;;;8.60;;
5416;SDS011;2731;50.754;12.990;2022-10-18T00:15:59;12.40;;;8.55;;
5416;SDS011;2731;50.754;12.990;2022-10-18T00:18:27;11.40;;;8.40;;
5416;SDS011;2731;50.754;12.990;2022-10-18T00:20:56;11.80;;;9.35;;
5416;SDS011;2731;50.754;12.990;2022-10-18T00:23:31;12.65;;;9.45;;
5416;SDS011;2731;50.754;12.990;2022-10-18T00:26:00;12.32;;;9.40;;
5416;SDS011;2731;50.754;12.990;2022-10-18T00:28:43;14.32;;;9.88;;
5416;SDS011;2731;50.754;12.990;2022-10-18T00:33:46;17.10;;;10.40;;
5416;SDS011;2731;50.754;12.990;2022-10-18T00:36:15;12.50;;;9.13;;
5416;SDS011;2731;50.754;12.990;2022-10-18T00:38:40;12.27;;;9.00;;
5416;SDS011;2731;50.754;12.990;2022-10-18T00:41:08;10.95;;;8.43;;
5416;SDS011;2731;50.754;12.990;2022-10-18T00:46:33;11.32;;;8.25;;
5416;SDS011;2731;50.754;12.990;2022-10-18T00:49:08;10.98;;;8.75;;
5416;SDS011;2731;50.754;12.990;2022-10-18T00:51:50;12.23;;;9.00;;
5416;SDS011;2731;50.754;12.990;2022-10-18T00:54:22;11.20;;;8.13;;
5416;SDS011;2731;50.754;12.990;2022-10-18T00:56:47;12.40;;;7.80;;
5416;SDS011;2731;50.754;12.990;2022-10-18T00:59:14;12.13;;;8.73;;
5416;SDS011;2731;50.754;12.990;2022-10-18T01:01:41;11.23;;;8.73;;
5416;SDS011;2731;50.754;12.990;2022-10-18T01:04:07;11.32;;;8.93;;
5416;SDS011;2731;50.754;12.990;2022-10-18T01:06:36;11.40;;;8.52;;
5416;SDS011;2731;50.754;12.990;2022-10-18T01:15:34;12.55;;;8.73;;
5416;SDS011;2731;50.754;12.990;2022-10-18T01:32:50;10.52;;;7.75;;
5416;SDS011;2731;50.754;12.990;2022-10-18T01:35:21;16.83;;;9.25;;
5416;SDS011;2731;50.754;12.990;2022-10-18T01:37:51;11.85;;;8.93;;
5416;SDS011;2731;50.754;12.990;2022-10-18T01:40:20;10.93;;;8.45;;
5416;SDS011;2731;50.754;12.990;2022-10-18T01:42:46;11.50;;;9.25;;
5416;SDS011;2731;50.754;12.990;2022-10-18T01:45:13;10.50;;;7.78;;
5416;SDS011;2731;50.754;12.990;2022-10-18T01:47:40;11.80;;;8.93;;
5416;SDS011;2731;50.754;12.990;2022-10-18T01:50:09;11.57;;;8.43;;
5416;SDS011;2731;50.754;12.990;2022-10-18T01:52:46;12.15;;;9.23;;
5416;SDS011;2731;50.754;12.990;2022-10-18T01:55:15;11.65;;;8.20;;
5416;SDS011;2731;50.754;12.990;2022-10-18T01:57:45;11.98;;;8.98;;
5416;SDS011;2731;50.754;12.990;2022-10-18T02:00:37;14.65;;;8.50;;
5416;SDS011;2731;50.754;12.990;2022-10-18T02:03:20;13.18;;;9.38;;
5416;SDS011;2731;50.754;12.990;2022-10-18T02:05:51;9.85;;;7.43;;
5416;SDS011;2731;50.754;12.990;2022-10-18T02:08:27;12.07;;;8.65;;
5416;SDS011;2731;50.754;12.990;2022-10-18T02:11:00;13.68;;;8.77;;
5416;SDS011;2731;50.754;12.990;2022-10-18T02:13:32;14.10;;;8.85;;
5416;SDS011;2731;50.754;12.990;2022-10-18T02:16:27;14.35;;;8.88;;
5416;SDS011;2731;50.754;12.990;2022-10-18T02:18:54;11.77;;;8.50;;
5416;SDS011;2731;50.754;12.990;2022-10-18T02:21:41;10.13;;;7.85;;
5416;SDS011;2731;50.754;12.990;2022-10-18T02:24:08;11.95;;;7.40;;
5416;SDS011;2731;50.754;12.990;2022-10-18T02:26:36;12.60;;;8.45;;
5416;SDS011;2731;50.754;12.990;2022-10-18T02:29:03;11.18;;;7.88;;
5416;SDS011;2731;50.754;12.990;2022-10-18T02:31:35;11.52;;;7.00;;
5416;SDS011;2731;50.754;12.990;2022-10-18T02:36:47;11.45;;;8.43;;
5416;SDS011;2731;50.754;12.990;2022-10-18T02:39:14;10.45;;;7.85;;
5416;SDS011;2731;50.754;12.990;2022-10-18T02:41:43;13.05;;;7.65;;
5416;SDS011;2731;50.754;12.990;2022-10-18T02:44:09;11.55;;;8.07;;
5416;SDS011;2731;50.754;12.990;2022-10-18T02:46:36;9.40;;;6.97;;
5416;SDS011;2731;50.754;12.990;2022-10-18T02:49:01;9.32;;;6.65;;
5416;SDS011;2731;50.754;12.990;2022-10-18T02:51:27;9.70;;;7.20;;
5416;SDS011;2731;50.754;12.990;2022-10-18T02:53:52;9.82;;;7.05;;
5416;SDS011;2731;50.754;12.990;2022-10-18T02:56:18;9.52;;;7.00;;
5416;SDS011;2731;50.754;12.990;2022-10-18T02:58:45;9.35;;;6.78;;
5416;SDS011;2731;50.754;12.990;2022-10-18T03:01:11;10.23;;;7.25;;
5416;SDS011;2731;50.754;12.990;2022-10-18T03:03:36;10.05;;;7.15;;
5416;SDS011;2731;50.754;12.990;2022-10-18T03:06:01;13.55;;;7.53;;
5416;SDS011;2731;50.754;12.990;2022-10-18T03:08:27;9.43;;;6.43;;
5416;SDS011;2731;50.754;12.990;2022-10-18T03:10:53;10.18;;;7.03;;
5416;SDS011;2731;50.754;12.990;2022-10-18T03:13:22;8.05;;;6.32;;
5416;SDS011;2731;50.754;12.990;2022-10-18T03:15:50;12.02;;;7.03;;
5416;SDS011;2731;50.754;12.990;2022-10-18T03:18:17;8.25;;;6.05;;
5416;SDS011;2731;50.754;12.990;2022-10-18T03:20:42;11.52;;;6.93;;
5416;SDS011;2731;50.754;12.990;2022-10-18T03:23:08;10.05;;;6.53;;
5416;SDS011;2731;50.754;12.990;2022-10-18T03:25:33;11.80;;;7.55;;
5416;SDS011;2731;50.754;12.990;2022-10-18T03:28:00;10.30;;;6.97;;
5416;SDS011;2731;50.754;12.990;2022-10-18T03:30:36;9.48;;;6.32;;
5416;SDS011;2731;50.754;12.990;2022-10-18T03:33:04;9.73;;;7.07;;
5416;SDS011;2731;50.754;12.990;2022-10-18T03:35:30;10.05;;;7.20;;
5416;SDS011;2731;50.754;12.990;2022-10-18T03:37:55;10.05;;;7.20;;
5416;SDS011;2731;50.754;12.990;2022-10-18T03:40:21;11.40;;;7.47;;
5416;SDS011;2731;50.754;12.990;2022-10-18T03:42:46;8.27;;;7.20;;
5416;SDS011;2731;50.754;12.990;2022-10-18T03:45:11;9.93;;;6.90;;
5416;SDS011;2731;50.754;12.990;2022-10-18T03:47:37;9.30;;;7.00;;
5416;SDS011;2731;50.754;12.990;2022-10-18T03:50:04;10.50;;;7.75;;
5416;SDS011;2731;50.754;12.990;2022-10-18T03:52:31;14.95;;;7.28;;
5416;SDS011;2731;50.754;12.990;2022-10-18T03:54:58;10.20;;;7.22;;
5416;SDS011;2731;50.754;12.990;2022-10-18T03:57:23;8.63;;;6.80;;
5416;SDS011;2731;50.754;12.990;2022-10-18T03:59:50;10.57;;;7.50;;
5416;SDS011;2731;50.754;12.990;2022-10-18T04:02:16;10.10;;;7.35;;
5416;SDS011;2731;50.754;12.990;2022-10-18T04:04:42;10.77;;;7.25;;
5416;SDS011;2731;50.754;12.990;2022-10-18T04:07:10;9.85;;;7.40;;
5416;SDS011;2731;50.754;12.990;2022-10-18T04:09:36;11.10;;;7.10;;
5416;SDS011;2731;50.754;12.990;2022-10-18T04:12:03;9.77;;;7.82;;
5416;SDS011;2731;50.754;12.990;2022-10-18T04:14:28;9.73;;;7.05;;
5416;SDS011;2731;50.754;12.990;2022-10-18T04:16:55;9.52;;;6.55;;
5416;SDS011;2731;50.754;12.990;2022-10-18T04:19:22;9.30;;;6.65;;
5416;SDS011;2731;50.754;12.990;2022-10-18T04:21:47;9.40;;;6.45;;
5416;SDS011;2731;50.754;12.990;2022-10-18T04:24:15;10.48;;;7.30;;
5416;SDS011;2731;50.754;12.990;2022-10-18T04:26:42;10.02;;;6.82;;
5416;SDS011;2731;50.754;12.990;2022-10-18T04:29:08;13.15;;;8.02;;
5416;SDS011;2731;50.754;12.990;2022-10-18T04:31:35;10.82;;;6.82;;
5416;SDS011;2731;50.754;12.990;2022-10-18T04:34:00;10.70;;;6.63;;
5416;SDS011;2731;50.754;12.990;2022-10-18T04:36:28;12.65;;;7.80;;
5416;SDS011;2731;50.754;12.990;2022-10-18T04:38:53;10.73;;;6.78;;
5416;SDS011;2731;50.754;12.990;2022-10-18T04:41:20;8.23;;;6.55;;
5416;SDS011;2731;50.754;12.990;2022-10-18T04:43:46;10.50;;;7.40;;
5416;SDS011;2731;50.754;12.990;2022-10-18T04:46:12;11.57;;;7.63;;
5416;SDS011;2731;50.754;12.990;2022-10-18T04:48:38;8.27;;;5.38;;
5416;SDS011;2731;50.754;12.990;2022-10-18T04:51:03;9.05;;;6.15;;
5416;SDS011;2731;50.754;12.990;2022-10-18T04:53:31;7.35;;;5.38;;
5416;SDS011;2731;50.754;12.990;2022-10-18T04:55:58;8.48;;;6.10;;
5416;SDS011;2731;50.754;12.990;2022-10-18T04:58:26;8.32;;;6.05;;
5416;SDS011;2731;50.754;12.990;2022-10-18T05:00:51;6.60;;;5.55;;
5416;SDS011;2731;50.754;12.990;2022-10-18T05:03:18;9.30;;;5.80;;
5416;SDS011;2731;50.754;12.990;2022-10-18T05:05:43;8.13;;;6.57;;
5416;SDS011;2731;50.754;12.990;2022-10-18T05:08:11;10.15;;;5.85;;
5416;SDS011;2731;50.754;12.990;2022-10-18T05:10:38;7.93;;;6.00;;
5416;SDS011;2731;50.754;12.990;2022-10-18T05:13:05;7.35;;;5.72;;
5416;SDS011;2731;50.754;12.990;2022-10-18T05:15:30;7.18;;;5.60;;
5416;SDS011;2731;50.754;12.990;2022-10-18T05:17:56;7.43;;;5.75;;
5416;SDS011;2731;50.754;12.990;2022-10-18T05:20:21;11.60;;;5.97;;
5416;SDS011;2731;50.754;12.990;2022-10-18T05:22:48;8.68;;;5.80;;
5416;SDS011;2731;50.754;12.990;2022-10-18T05:25:14;8.07;;;5.63;;
5416;SDS011;2731;50.754;12.990;2022-10-18T05:27:41;7.35;;;5.70;;
5416;SDS011;2731;50.754;12.990;2022-10-18T05:30:07;7.57;;;5.75;;
5416;SDS011;2731;50.754;12.990;2022-10-18T05:32:33;10.07;;;6.78;;
5416;SDS011;2731;50.754;12.990;2022-10-18T05:34:59;8.77;;;6.18;;
5416;SDS011;2731;50.754;12.990;2022-10-18T05:37:26;7.00;;;5.60;;
5416;SDS011;2731;50.754;12.990;2022-10-18T05:39:53;8.18;;;6.15;;
5416;SDS011;2731;50.754;12.990;2022-10-18T05:42:19;11.68;;;6.10;;
5416;SDS011;2731;50.754;12.990;2022-10-18T05:44:47;6.30;;;5.13;;
5416;SDS011;2731;50.754;12.990;2022-10-18T05:47:12;6.95;;;5.60;;
5416;SDS011;2731;50.754;12.990;2022-10-18T05:49:38;10.48;;;5.85;;
5416;SDS011;2731;50.754;12.990;2022-10-18T05:52:03;9.43;;;6.47;;
5416;SDS011;2731;50.754;12.990;2022-10-18T05:54:31;9.35;;;5.75;;
5416;SDS011;2731;50.754;12.990;2022-10-18T05:56:58;8.73;;;5.97;;
5416;SDS011;2731;50.754;12.990;2022-10-18T05:59:23;8.55;;;5.68;;
5416;SDS011;2731;50.754;12.990;2022-10-18T06:01:49;8.10;;;5.72;;
5416;SDS011;2731;50.754;12.990;2022-10-18T06:04:15;10.27;;;5.70;;
5416;SDS011;2731;50.754;12.990;2022-10-18T06:06:42;10.30;;;7.03;;
5416;SDS011;2731;50.754;12.990;2022-10-18T06:09:09;8.18;;;6.05;;
5416;SDS011;2731;50.754;12.990;2022-10-18T06:11:34;7.97;;;6.10;;
5416;SDS011;2731;50.754;12.990;2022-10-18T06:14:01;9.48;;;5.88;;
5416;SDS011;2731;50.754;12.990;2022-10-18T06:16:27;7.45;;;5.50;;
5416;SDS011;2731;50.754;12.990;2022-10-18T06:18:54;7.20;;;5.65;;
5416;SDS011;2731;50.754;12.990;2022-10-18T06:21:23;9.23;;;5.78;;
5416;SDS011;2731;50.754;12.990;2022-10-18T06:23:49;8.68;;;6.00;;
5416;SDS011;2731;50.754;12.990;2022-10-18T06:26:15;9.13;;;5.90;;
5416;SDS011;2731;50.754;12.990;2022-10-18T06:28:42;8.10;;;5.65;;
5416;SDS011;2731;50.754;12.990;2022-10-18T06:31:10;7.15;;;5.82;;
5416;SDS011;2731;50.754;12.990;2022-10-18T06:33:37;7.57;;;5.97;;
5416;SDS011;2731;50.754;12.990;2022-10-18T06:36:04;11.25;;;6.20;;
5416;SDS011;2731;50.754;12.990;2022-10-18T06:38:32;10.13;;;5.65;;
5416;SDS011;2731;50.754;12.990;2022-10-18T06:40:58;9.55;;;6.20;;
5416;SDS011;2731;50.754;12.990;2022-10-18T06:43:24;6.93;;;5.80;;
5416;SDS011;2731;50.754;12.990;2022-10-18T06:45:51;8.30;;;6.07;;
5416;SDS011;2731;50.754;12.990;2022-10-18T06:48:17;8.98;;;6.13;;
5416;SDS011;2731;50.754;12.990;2022-10-18T06:50:54;8.68;;;6.10;;
5416;SDS011;2731;50.754;12.990;2022-10-18T06:53:27;7.75;;;6.13;;
5416;SDS011;2731;50.754;12.990;2022-10-18T06:56:00;10.77;;;6.55;;
5416;SDS011;2731;50.754;12.990;2022-10-18T06:58:28;9.65;;;5.97;;
5416;SDS011;2731;50.754;12.990;2022-10-18T07:00:54;10.27;;;6.43;;
5416;SDS011;2731;50.754;12.990;2022-10-18T07:03:20;11.38;;;6.38;;
5416;SDS011;2731;50.754;12.990;2022-10-18T07:05:47;7.45;;;5.97;;
5416;SDS011;2731;50.754;12.990;2022-10-18T07:08:15;8.60;;;6.10;;
5416;SDS011;2731;50.754;12.990;2022-10-18T07:10:49;7.38;;;5.28;;
5416;SDS011;2731;50.754;12.990;2022-10-18T07:13:16;7.38;;;5.63;;
5416;SDS011;2731;50.754;12.990;2022-10-18T07:15:43;9.15;;;5.25;;
5416;SDS011;2731;50.754;12.990;2022-10-18T07:18:11;10.13;;;6.05;;
5416;SDS011;2731;50.754;12.990;2022-10-18T07:20:37;7.60;;;5.55;;
5416;SDS011;2731;50.754;12.990;2022-10-18T07:23:03;9.63;;;5.57;;
5416;SDS011;2731;50.754;12.990;2022-10-18T07:25:34;8.23;;;5.65;;
5416;SDS011;2731;50.754;12.990;2022-10-18T07:28:00;10.65;;;5.60;;
5416;SDS011;2731;50.754;12.990;2022-10-18T07:30:25;9.55;;;6.22;;
5416;SDS011;2731;50.754;12.990;2022-10-18T07:32:52;9.73;;;5.95;;
5416;SDS011;2731;50.754;12.990;2022-10-18T07:35:19;8.98;;;5.03;;
5416;SDS011;2731;50.754;12.990;2022-10-18T07:37:44;6.18;;;4.97;;
5416;SDS011;2731;50.754;12.990;2022-10-18T07:40:10;7.15;;;4.97;;
5416;SDS011;2731;50.754;12.990;2022-10-18T07:42:37;11.80;;;5.13;;
5416;SDS011;2731;50.754;12.990;2022-10-18T07:45:04;8.02;;;5.55;;
5416;SDS011;2731;50.754;12.990;2022-10-18T07:47:32;8.35;;;5.32;;
5416;SDS011;2731;50.754;12.990;2022-10-18T07:49:58;6.15;;;4.70;;
5416;SDS011;2731;50.754;12.990;2022-10-18T07:52:26;10.40;;;5.30;;
5416;SDS011;2731;50.754;12.990;2022-10-18T07:54:51;7.90;;;6.20;;
5416;SDS011;2731;50.754;12.990;2022-10-18T07:57:18;8.00;;;5.60;;
5416;SDS011;2731;50.754;12.990;2022-10-18T07:59:43;7.03;;;4.95;;
5416;SDS011;2731;50.754;12.990;2022-10-18T08:02:12;7.05;;;5.00;;
5416;SDS011;2731;50.754;12.990;2022-10-18T08:04:38;8.38;;;6.00;;
5416;SDS011;2731;50.754;12.990;2022-10-18T08:07:05;9.00;;;5.72;;
5416;SDS011;2731;50.754;12.990;2022-10-18T08:09:31;7.75;;;5.25;;
5416;SDS011;2731;50.754;12.990;2022-10-18T08:11:57;9.23;;;5.07;;
5416;SDS011;2731;50.754;12.990;2022-10-18T08:14:24;6.47;;;5.40;;
5416;SDS011;2731;50.754;12.990;2022-10-18T08:16:50;6.80;;;5.20;;
5416;SDS011;2731;50.754;12.990;2022-10-18T08:19:17;8.77;;;5.80;;
5416;SDS011;2731;50.754;12.990;2022-10-18T08:21:42;10.23;;;5.53;;
5416;SDS011;2731;50.754;12.990;2022-10-18T08:24:08;9.82;;;5.63;;
5416;SDS011;2731;50.754;12.990;2022-10-18T08:26:35;7.65;;;5.80;;
5416;SDS011;2731;50.754;12.990;2022-10-18T08:29:02;7.72;;;5.38;;
5416;SDS011;2731;50.754;12.990;2022-10-18T08:31:30;6.32;;;5.13;;
5416;SDS011;2731;50.754;12.990;2022-10-18T08:33:55;5.93;;;5.03;;
5416;SDS011;2731;50.754;12.990;2022-10-18T08:36:23;6.35;;;5.00;;
5416;SDS011;2731;50.754;12.990;2022-10-18T08:38:48;8.10;;;5.70;;
5416;SDS011;2731;50.754;12.990;2022-10-18T08:46:50;5.00;;;4.15;;
5416;SDS011;2731;50.754;12.990;2022-10-18T08:49:20;6.35;;;5.22;;
5416;SDS011;2731;50.754;12.990;2022-10-18T08:51:54;6.78;;;5.43;;
5416;SDS011;2731;50.754;12.990;2022-10-18T08:54:30;5.68;;;4.82;;
5416;SDS011;2731;50.754;12.990;2022-10-18T08:57:18;6.65;;;5.05;;
5416;SDS011;2731;50.754;12.990;2022-10-18T08:59:46;6.60;;;4.85;;
5416;SDS011;2731;50.754;12.990;2022-10-18T09:05:24;6.82;;;4.90;;
5416;SDS011;2731;50.754;12.990;2022-10-18T09:16:24;7.68;;;5.20;;
5416;SDS011;2731;50.754;12.990;2022-10-18T09:21:45;6.57;;;4.97;;
5416;SDS011;2731;50.754;12.990;2022-10-18T09:27:11;6.13;;;4.72;;
5416;SDS011;2731;50.754;12.990;2022-10-18T09:35:41;6.65;;;4.85;;
5416;SDS011;2731;50.754;12.990;2022-10-18T09:38:12;7.10;;;5.30;;
5416;SDS011;2731;50.754;12.990;2022-10-18T09:40:49;6.20;;;3.85;;
5416;SDS011;2731;50.754;12.990;2022-10-18T09:43:22;5.18;;;4.25;;
5416;SDS011;2731;50.754;12.990;2022-10-18T09:46:05;5.95;;;3.80;;
5416;SDS011;2731;50.754;12.990;2022-10-18T09:49:14;5.55;;;3.67;;
5416;SDS011;2731;50.754;12.990;2022-10-18T09:51:28;9.73;;;3.60;;
5416;SDS011;2731;50.754;12.990;2022-10-18T09:54:19;3.65;;;3.25;;
5416;SDS011;2731;50.754;12.990;2022-10-18T09:57:49;4.18;;;3.20;;
5416;SDS011;2731;50.754;12.990;2022-10-18T09:59:55;6.15;;;3.50;;
5416;SDS011;2731;50.754;12.990;2022-10-18T10:02:23;3.85;;;3.05;;
5416;SDS011;2731;50.754;12.990;2022-10-18T10:04:51;8.75;;;4.05;;
5416;SDS011;2731;50.754;12.990;2022-10-18T10:07:21;10.60;;;4.25;;
5416;SDS011;2731;50.754;12.990;2022-10-18T10:10:12;9.43;;;5.95;;
5416;SDS011;2731;50.754;12.990;2022-10-18T10:12:41;10.73;;;5.57;;
5416;SDS011;2731;50.754;12.990;2022-10-18T10:15:20;9.18;;;5.63;;
5416;SDS011;2731;50.754;12.990;2022-10-18T10:18:00;9.70;;;6.78;;
5416;SDS011;2731;50.754;12.990;2022-10-18T10:20:53;9.93;;;6.00;;
5416;SDS011;2731;50.754;12.990;2022-10-18T10:26:19;16.30;;;7.70;;
5416;SDS011;2731;50.754;12.990;2022-10-18T10:28:47;11.18;;;6.88;;
5416;SDS011;2731;50.754;12.990;2022-10-18T10:34:00;10.43;;;8.00;;
5416;SDS011;2731;50.754;12.990;2022-10-18T10:36:46;11.20;;;7.40;;
5416;SDS011;2731;50.754;12.990;2022-10-18T10:39:16;11.10;;;6.97;;
5416;SDS011;2731;50.754;12.990;2022-10-18T10:44:19;13.43;;;9.73;;
5416;SDS011;2731;50.754;12.990;2022-10-18T10:46:49;11.50;;;8.73;;
5416;SDS011;2731;50.754;12.990;2022-10-18T10:49:17;20.73;;;9.20;;
5416;SDS011;2731;50.754;12.990;2022-10-18T10:51:44;11.70;;;9.57;;
5416;SDS011;2731;50.754;12.990;2022-10-18T10:54:16;15.23;;;10.55;;
5416;SDS011;2731;50.754;12.990;2022-10-18T10:57:02;16.02;;;12.45;;
5416;SDS011;2731;50.754;12.990;2022-10-18T10:59:48;14.70;;;11.35;;
5416;SDS011;2731;50.754;12.990;2022-10-18T11:04:46;14.02;;;12.02;;
5416;SDS011;2731;50.754;12.990;2022-10-18T11:10:13;18.48;;;14.52;;
5416;SDS011;2731;50.754;12.990;2022-10-18T11:13:04;16.58;;;12.98;;
5416;SDS011;2731;50.754;12.990;2022-10-18T11:15:39;16.20;;;12.77;;
5416;SDS011;2731;50.754;12.990;2022-10-18T11:18:26;17.02;;;13.07;;
5416;SDS011;2731;50.754;12.990;2022-10-18T11:23:20;12.60;;;10.38;;
5416;SDS011;2731;50.754;12.990;2022-10-18T11:28:55;14.63;;;11.45;;
5416;SDS011;2731;50.754;12.990;2022-10-18T11:31:44;11.52;;;10.30;;
5416;SDS011;2731;50.754;12.990;2022-10-18T11:43:41;10.70;;;9.60;;
5416;SDS011;2731;50.754;12.990;2022-10-18T12:05:34;11.57;;;9.77;;
5416;SDS011;2731;50.754;12.990;2022-10-18T12:10:51;9.52;;;8.32;;
5416;SDS011;2731;50.754;12.990;2022-10-18T12:13:22;8.05;;;7.25;;
5416;SDS011;2731;50.754;12.990;2022-10-18T12:16:05;6.95;;;6.25;;
5416;SDS011;2731;50.754;12.990;2022-10-18T12:18:34;7.15;;;5.60;;
5416;SDS011;2731;50.754;12.990;2022-10-18T12:21:03;4.80;;;4.32;;
5416;SDS011;2731;50.754;12.990;2022-10-18T12:26:24;2.28;;;2.05;;
5416;SDS011;2731;50.754;12.990;2022-10-18T12:31:45;1.42;;;1.30;;
5416;SDS011;2731;50.754;12.990;2022-10-18T12:37:33;2.92;;;1.75;;
5416;SDS011;2731;50.754;12.990;2022-10-18T12:40:28;1.80;;;1.33;;
5416;SDS011;2731;50.754;12.990;2022-10-18T12:43:26;2.28;;;1.70;;
5416;SDS011;2731;50.754;12.990;2022-10-18T12:45:59;1.40;;;1.30;;
5416;SDS011;2731;50.754;12.990;2022-10-18T12:48:33;1.83;;;1.23;;
5416;SDS011;2731;50.754;12.990;2022-10-18T12:51:12;1.23;;;0.90;;
5416;SDS011;2731;50.754;12.990;2022-10-18T12:53:41;0.93;;;0.70;;
5416;SDS011;2731;50.754;12.990;2022-10-18T13:25:52;0.73;;;0.52;;
5416;SDS011;2731;50.754;12.990;2022-10-18T13:31:18;0.20;;;0.20;;
5416;SDS011;2731;50.754;12.990;2022-10-18T13:39:37;0.38;;;0.35;;
5416;SDS011;2731;50.754;12.990;2022-10-18T13:42:37;0.50;;;0.40;;
5416;SDS011;2731;50.754;12.990;2022-10-18T13:48:52;0.30;;;0.30;;
5416;SDS011;2731;50.754;12.990;2022-10-18T13:56:51;0.22;;;0.22;;
5416;SDS011;2731;50.754;12.990;2022-10-18T14:02:39;0.30;;;0.30;;
5416;SDS011;2731;50.754;12.990;2022-10-18T14:08:32;1.10;;;0.60;;
5416;SDS011;2731;50.754;12.990;2022-10-18T14:13:30;0.38;;;0.30;;
5416;SDS011;2731;50.754;12.990;2022-10-18T14:16:18;0.40;;;0.30;;
5416;SDS011;2731;50.754;12.990;2022-10-18T14:19:40;0.63;;;0.40;;
5416;SDS011;2731;50.754;12.990;2022-10-18T14:22:41;0.50;;;0.50;;
5416;SDS011;2731;50.754;12.990;2022-10-18T14:24:59;0.63;;;0.60;;
5416;SDS011;2731;50.754;12.990;2022-10-18T14:27:26;0.65;;;0.60;;
5416;SDS011;2731;50.754;12.990;2022-10-18T14:30:12;0.50;;;0.45;;
5416;SDS011;2731;50.754;12.990;2022-10-18T14:32:58;0.10;;;0.10;;
5416;SDS011;2731;50.754;12.990;2022-10-18T14:35:29;0.20;;;0.20;;
5416;SDS011;2731;50.754;12.990;2022-10-18T14:37:56;2.10;;;0.40;;
5416;SDS011;2731;50.754;12.990;2022-10-18T14:40:38;0.52;;;0.40;;
5416;SDS011;2731;50.754;12.990;2022-10-18T14:43:11;0.32;;;0.32;;
5416;SDS011;2731;50.754;12.990;2022-10-18T14:45:40;0.20;;;0.20;;
5416;SDS011;2731;50.754;12.990;2022-10-18T14:48:12;0.30;;;0.30;;
5416;SDS011;2731;50.754;12.990;2022-10-18T14:50:38;1.05;;;0.68;;
5416;SDS011;2731;50.754;12.990;2022-10-18T14:53:07;0.50;;;0.40;;
5416;SDS011;2731;50.754;12.990;2022-10-18T14:55:36;0.80;;;0.40;;
5416;SDS011;2731;50.754;12.990;2022-10-18T14:58:07;0.30;;;0.28;;
5416;SDS011;2731;50.754;12.990;2022-10-18T15:00:38;0.50;;;0.40;;
5416;SDS011;2731;50.754;12.990;2022-10-18T15:03:05;0.60;;;0.55;;
5416;SDS011;2731;50.754;12.990;2022-10-18T15:05:37;0.82;;;0.40;;
5416;SDS011;2731;50.754;12.990;2022-10-18T15:08:15;0.88;;;0.50;;
5416;SDS011;2731;50.754;12.990;2022-10-18T15:10:42;0.70;;;0.50;;
5416;SDS011;2731;50.754;12.990;2022-10-18T15:13:10;0.45;;;0.43;;
5416;SDS011;2731;50.754;12.990;2022-10-18T15:15:37;0.40;;;0.30;;
5416;SDS011;2731;50.754;12.990;2022-10-18T15:18:03;1.05;;;0.55;;
5416;SDS011;2731;50.754;12.990;2022-10-18T15:20:32;0.75;;;0.55;;
5416;SDS011;2731;50.754;12.990;2022-10-18T15:26:06;0.50;;;0.40;;
5416;SDS011;2731;50.754;12.990;2022-10-18T15:28:39;0.68;;;0.47;;
5416;SDS011;2731;50.754;12.990;2022-10-18T15:34:07;0.40;;;0.32;;
5416;SDS011;2731;50.754;12.990;2022-10-18T15:36:42;0.57;;;0.45;;
5416;SDS011;2731;50.754;12.990;2022-10-18T15:39:18;1.00;;;0.40;;
5416;SDS011;2731;50.754;12.990;2022-10-18T15:41:47;1.35;;;0.38;;
5416;SDS011;2731;50.754;12.990;2022-10-18T15:44:28;0.40;;;0.40;;
5416;SDS011;2731;50.754;12.990;2022-10-18T15:49:47;0.50;;;0.50;;
5416;SDS011;2731;50.754;12.990;2022-10-18T15:52:32;0.50;;;0.47;;
5416;SDS011;2731;50.754;12.990;2022-10-18T15:58:20;0.43;;;0.43;;
5416;SDS011;2731;50.754;12.990;2022-10-18T16:00:51;9.50;;;0.82;;
5416;SDS011;2731;50.754;12.990;2022-10-18T16:03:18;0.60;;;0.60;;
5416;SDS011;2731;50.754;12.990;2022-10-18T16:05:46;0.55;;;0.55;;
5416;SDS011;2731;50.754;12.990;2022-10-18T16:08:30;1.20;;;0.80;;
5416;SDS011;2731;50.754;12.990;2022-10-18T16:11:01;1.27;;;1.00;;
5416;SDS011;2731;50.754;12.990;2022-10-18T16:13:27;1.10;;;1.00;;
5416;SDS011;2731;50.754;12.990;2022-10-18T16:15:53;0.70;;;0.70;;
5416;SDS011;2731;50.754;12.990;2022-10-18T16:18:24;1.67;;;1.30;;
5416;SDS011;2731;50.754;12.990;2022-10-18T16:20:52;2.85;;;1.42;;
5416;SDS011;2731;50.754;12.990;2022-10-18T16:23:23;1.60;;;1.50;;
5416;SDS011;2731;50.754;12.990;2022-10-18T16:25:51;2.03;;;1.83;;
5416;SDS011;2731;50.754;12.990;2022-10-18T16:28:23;4.03;;;2.72;;
5416;SDS011;2731;50.754;12.990;2022-10-18T16:30:58;2.45;;;2.25;;
5416;SDS011;2731;50.754;12.990;2022-10-18T16:33:25;2.08;;;1.92;;
5416;SDS011;2731;50.754;12.990;2022-10-18T16:35:52;2.30;;;2.05;;
5416;SDS011;2731;50.754;12.990;2022-10-18T16:40:46;3.60;;;3.28;;
5416;SDS011;2731;50.754;12.990;2022-10-18T16:43:11;2.88;;;2.58;;
5416;SDS011;2731;50.754;12.990;2022-10-18T16:45:38;2.40;;;2.20;;
5416;SDS011;2731;50.754;12.990;2022-10-18T16:48:03;3.00;;;2.60;;
5416;SDS011;2731;50.754;12.990;2022-10-18T16:50:29;3.80;;;2.88;;
5416;SDS011;2731;50.754;12.990;2022-10-18T16:52:55;3.70;;;3.15;;
5416;SDS011;2731;50.754;12.990;2022-10-18T16:55:21;4.00;;;3.17;;
5416;SDS011;2731;50.754;12.990;2022-10-18T16:57:49;4.15;;;3.30;;
5416;SDS011;2731;50.754;12.990;2022-10-18T17:00:20;2.83;;;2.55;;
5416;SDS011;2731;50.754;12.990;2022-10-18T17:02:47;3.38;;;2.83;;
5416;SDS011;2731;50.754;12.990;2022-10-18T17:05:16;3.65;;;3.00;;
5416;SDS011;2731;50.754;12.990;2022-10-18T17:07:42;2.72;;;2.47;;
5416;SDS011;2731;50.754;12.990;2022-10-18T17:10:12;3.03;;;2.50;;
5416;SDS011;2731;50.754;12.990;2022-10-18T17:12:40;3.20;;;2.80;;
5416;SDS011;2731;50.754;12.990;2022-10-18T17:15:07;3.38;;;2.80;;
5416;SDS011;2731;50.754;12.990;2022-10-18T17:17:35;3.47;;;2.70;;
5416;SDS011;2731;50.754;12.990;2022-10-18T17:22:32;3.70;;;3.15;;
5416;SDS011;2731;50.754;12.990;2022-10-18T17:24:59;3.80;;;2.95;;
5416;SDS011;2731;50.754;12.990;2022-10-18T17:27:26;3.20;;;2.88;;
5416;SDS011;2731;50.754;12.990;2022-10-18T17:29:53;4.88;;;2.85;;
5416;SDS011;2731;50.754;12.990;2022-10-18T17:32:22;3.75;;;3.42;;
5416;SDS011;2731;50.754;12.990;2022-10-18T17:34:47;3.75;;;3.17;;
5416;SDS011;2731;50.754;12.990;2022-10-18T17:37:13;3.05;;;2.75;;
5416;SDS011;2731;50.754;12.990;2022-10-18T17:39:39;3.17;;;2.85;;
5416;SDS011;2731;50.754;12.990;2022-10-18T17:42:05;4.07;;;3.47;;
5416;SDS011;2731;50.754;12.990;2022-10-18T17:44:31;4.60;;;4.05;;
5416;SDS011;2731;50.754;12.990;2022-10-18T17:46:57;5.47;;;4.50;;
5416;SDS011;2731;50.754;12.990;2022-10-18T17:49:22;5.03;;;3.83;;
5416;SDS011;2731;50.754;12.990;2022-10-18T17:51:48;4.38;;;3.97;;
5416;SDS011;2731;50.754;12.990;2022-10-18T17:54:14;4.85;;;3.78;;
5416;SDS011;2731;50.754;12.990;2022-10-18T17:56:41;3.83;;;3.42;;
5416;SDS011;2731;50.754;12.990;2022-10-18T17:59:09;4.20;;;3.80;;
5416;SDS011;2731;50.754;12.990;2022-10-18T18:01:36;4.82;;;3.78;;
5416;SDS011;2731;50.754;12.990;2022-10-18T18:04:03;3.97;;;3.58;;
5416;SDS011;2731;50.754;12.990;2022-10-18T18:06:30;4.40;;;3.90;;
5416;SDS011;2731;50.754;12.990;2022-10-18T18:09:05;4.80;;;4.20;;
5416;SDS011;2731;50.754;12.990;2022-10-18T18:11:34;5.78;;;4.65;;
5416;SDS011;2731;50.754;12.990;2022-10-18T18:14:02;16.63;;;10.52;;
5416;SDS011;2731;50.754;12.990;2022-10-18T18:16:33;23.40;;;12.55;;
5416;SDS011;2731;50.754;12.990;2022-10-18T18:19:11;17.63;;;10.00;;
5416;SDS011;2731;50.754;12.990;2022-10-18T18:21:38;12.18;;;6.60;;
5416;SDS011;2731;50.754;12.990;2022-10-18T18:24:05;6.30;;;5.15;;